Hauptseite
METAR-TAF:

METAR-TAF

Flughäfen :

Flughafen Norrköping

Norrköping, Schweden

Breite: 58-35N, Länge: 016-09E, Höhe: 34 m

Beobachtung

Neuester Wetterbericht von vor 32 Minuten, um 22:20 UTC
Wind 5 kt aus Nordwest
Temperatur 3°C
Luftfeuchtigkeit 70%
Luftdruck 1004 hPa
Sichtweite 10 km oder mehr

METAR: ESSP 162220Z AUTO 32005KT 9999 OVC062/// 03/M02 Q1004

Zeit: 00:52 (22:52 UTC)

Prognose

Neuester Wetterbericht von vor 8 Stunden und 42 Minuten, um 14:10 UTC
Gültige Prognose vom 16 um 14 UTC bis 16 um 15 UTC
Wind 6 kt aus Nord/Nordost
Sichtweite 10 km oder mehr
Leicht bewölkt in der Höhe von 1500 ft
Aufgelockert bewölkt in der Höhe von 3500 ft
Wahrscheinlichkeit 40%
vom 16 um 14 UTC bis 16 um 15 UTC
Durchbrochene Bewölkung in der Höhe von 1400 ft
Durchbrochene Bewölkung in der Höhe von 3000 ft, Kumulonimbus.

TAF: ESSP 161410Z 1614/1615 02006KT 9999 FEW015 SCT035 PROB40 1614/1615 BKN014 BKN030CB

Wetterbeobachtungen und Prognosen von mehr als 4000 Flughäfen (METAR und TAF Bericht).

Die verfügbaren Stationen werden durch gelbe und rote Markierungen auf der Karte dargestellt.

Führen Sie die Maus auf sie, um den Namen der Station zu sehen.

Darauf klicken, um die Beobachtung von Wetterbeobachtungen und Prognosen zu sehen.

Um die Karte zu ändern : klicken Sie auf den grünen Tasten mit einem schwarzen Kreuz Zum Vergrößern, auf den grünen Button mit einem Gedankenstrich zu verkleinern, oder auf die grünen Pfeile für benachbarte Karten.


METAR-TAF: